| Station | Date | Time | Temp (°F) | RH (%) | Dew Pt (°F) | Wind Spd (mph) | Wind Dir (°) | Wind Gust (mph) | Latest Rain (In) | Daily Rain (In) | Daily Max Temp (°F) | Daily Min Temp (°F) |
|---|---|---|---|---|---|---|---|---|---|---|---|---|
| Montesol | 9/2/26 | 1130 | 58.4 4.5 | - | - | - | - | - | 0.00 | 0.29 | 58.5 4.7 | 52.5 10.6 |
| Pope Valley (Weeks Lake) | 9/2/26 | 1130 | 66.8 1.8 | 65 15 | 54.7 5.3 | 3.7 1.1 | SW | 226 | 8.1 1.5 | 0.00 | 0.00 | 67.2 2.8 | 48.8 5.2 |
| Dollarhide Base | 9/2/26 | 1130 | 68.4 1.1 | 73 17 | 59.6 6.1 | 3.5 1.8 | SSE | 161 | 7.9 2.7 | 0.00 | 0.00 | 69.3 2.0 | 56.7 5.8 |
| Dollarhide 16A Remote | 9/2/26 | 1130 | 67.8 2.0 | 75 18 | 59.5 5.9 | - | - | - | - | - | 68.7 5.7 | 57.1 8.7 |
| Hardin Rd (Eakle) | 9/2/26 | 1130 | 66.0 3.3 | - | - | - | - | - | - | - | 68.1 1.3 | 54.6 6.3 |
| Angwin | 9/2/26 | 1130 | 55.2 4.3 | 100 32 | 55.2 6.2 | 4.4 0.9 | SE | 140 | 10.1 0.2 | 0.00 | 0.05 | 56.4 3.8 | 51.0 1.3 |
| Lower Angwin (Pioneer) | 9/2/26 | 1130 | 58.2 4.4 | - | - | 2.4 1.7 | SW | 231 | 6.3 2.8 | - | - | 59.4 4.7 | 52.4 1.5 |
| Las Posadas (Cal Fire) | 9/2/26 | 1130 | 60.8 2.1 | 94 31 | 58.9 8.9 | 6.2 4.1 | S | 182 | 10.8 5.6 | 0.00 | 0.07 | 61.7 2.4 | 53.0 2.2 |
| Lower Chiles Valley (Brown) | 9/2/26 | 1130 | 63.2 2.3 | 82 22 | 57.5 6.6 | 2.2 2.0 | SSE | 148 | 6.4 5.3 | 0.00 | 0.00 | 63.3 3.1 | 47.1 9.2 |
| Moss Creek Vineyard/Reservior | 9/2/26 | 1100 | 62.4 2.9 | 87 27 | 58.3 7.5 | - | - | - | 0.00 | 0.00 | 63.9 2.5 | 52.8 2.5 |
| Max | 68.4 | 100 | 59.6 | 6.2 | - | 10.8 | 0.00 | 0.29 | 69.3 | 57.1 | ||
| Avg | 62.7 | 82 | 57.7 | 3.7 | - | 8.3 | 0.00 | - | - | - | ||
| Min | 55.2 | 65 | 54.7 | 2.2 | - | 6.3 | 0.00 | 0.00 | 56.4 | 47.1 |
| Station | Date | Time | Temp (°F) | RH (%) | Dew Pt (°F) | Wind Spd (mph) | Wind Dir (°) | Wind Gust (mph) | Latest Rain (In) | Daily Rain (In) | Daily Max Temp (°F) | Daily Min Temp (°F) |
|---|---|---|---|---|---|---|---|---|---|---|---|---|
| Tenma (North Calistoga) | 9/2/26 | 1130 | 65.9 4.7 | - | - | - | - | - | 0.00 | 0.06 | 66.2 5.3 | 56.4 2.5 |
| Calistoga-Solari | 9/2/26 | 1130 | 65.7 2.8 | 80 23 | 59.3 6.8 | 3.3 1.9 | WSW | 258 | 8.2 1.0 | 0.00 | 0.09 | 66.1 3.2 | 54.4 0.9 |
| Calistoga-North | 9/2/26 | 1130 | 65.3 3.9 | 87 27 | 61.5 6.5 | - | - | - | 0.00 | 0.03 | 67.4 3.8 | 57.9 1.9 |
| Twomey Calistoga | 9/2/26 | 1130 | 66.6 4.6 | 82 31 | 61.1 8.8 | 1.4 3.0 | NW | 325 | 3.6 5.8 | 0.00 | 0.02 | 66.9 4.9 | 49.8 2.2 |
| Paloma | 9/2/26 | 1130 | 65.4 7.1 | 83 30 | 60.1 5.8 | 2.6 1.6 | NE | 52 | 7.9 2.5 | 0.00 | 0.00 | 67.9 4.6 | 56.1 0.3 |
| Calistoga (Ranch 78) | 9/2/26 | 1130 | 65.6 3.1 | 79 26 | 59.1 7.9 | 1.8 3.8 | NW | 321 | 4.0 7.5 | 0.00 | 0.01 | 65.6 3.1 | 54.8 0.1 |
| Diamond Mtn (Schramsberg) | 9/2/26 | 1130 | 61.9 4.3 | 98 42 | 61.5 11.3 | - | - | - | 0.00 | 0.04 | 62.6 6.4 | 54.8 1.1 |
| Diamond Mtn (McEachran) | 9/2/26 | 1130 | 64.2 1.8 | 86 27 | 59.8 8.7 | - | - | - | - | - | 64.3 3.1 | 56.7 2.4 |
| Deer Park | 9/2/26 | 1130 | 64.9 3.0 | 77 24 | 57.4 7.3 | 3.0 1.3 | SW | 221 | 7.5 2.6 | 0.00 | 0.00 | 66.4 1.7 | 56.0 0.2 |
| St. Helena-North | 9/2/26 | 1130 | 65.4 3.9 | 79 31 | 58.9 9.9 | 2.5 0.0 | SSE | 159 | 5.5 3.1 | 0.00 | 0.01 | 66.0 5.5 | 55.8 1.5 |
| St. Helena (NVV Office) | 9/2/26 | 1130 | 66.3 2.8 | - | - | 1.9 0.4 | E | 91 | 3.9 4.7 | 0.00 | 0.02 | 67.0 2.8 | 55.8 1.4 |
| Tiara Fria (East St. Helena) | 9/2/26 | 1130 | 65.5 3.1 | 83 26 | 60.1 7.7 | 3.1 2.1 | ESE | 123 | 5.3 6.3 | 0.00 | 0.01 | 65.8 4.0 | 53.4 2.1 |
| Prisoner Winery | 9/2/26 | 1130 | 65.8 1.4 | 83 26 | 60.6 8.9 | 1.4 1.7 | ENE | 74 | 4.0 5.7 | 0.00 | 0.04 | 67.5 0.8 | 53.4 0.2 |
| Rutherford Hill Estate | 9/2/26 | 1130 | 64.1 3.8 | 84 26 | 59.3 6.7 | 1.6 0.9 | SSE | 147 | 5.3 4.2 | 0.01 | 0.04 | 65.9 3.2 | 55.9 1.2 |
| Rutherford-North (Mee Ln) | 9/2/26 | 1130 | 63.9 3.3 | 85 27 | 59.4 7.3 | 3.3 2.4 | N | 1 | 8.6 4.2 | 0.00 | 0.04 | 64.6 6.3 | 51.7 1.4 |
| Rutherford (STS) | 9/2/26 | 1130 | 69.3 2.1 | 82 24 | 63.5 7.8 | 3.3 2.9 | ESE | 120 | 9.7 2.4 | 0.00 | 0.02 | 69.3 2.1 | 52.2 3.6 |
| Silver Oak OV | 9/2/26 | 1130 | 66.5 1.3 | 77 20 | 59.0 7.2 | 5.0 0.0 | ESE | 121 | 9.9 0.9 | 0.00 | 0.00 | 66.8 1.8 | 52.5 5.7 |
| Oakville-NE (Ranch 88) | 9/2/26 | 1130 | 68.3 0.0 | 69 17 | 57.7 7.8 | 4.2 0.4 | SSE | 163 | 9.5 1.5 | 0.00 | 0.00 | 68.7 0.8 | 51.6 5.9 |
| Crossroads Ranch | 9/2/26 | 1130 | 66.3 1.7 | 79 20 | 59.4 6.3 | 5.7 1.3 | ESE | 117 | 10.7 0.7 | 0.00 | 0.00 | 66.7 1.5 | 52.9 5.6 |
| Oakville | 9/2/26 | 1130 | 66.2 1.5 | 77 21 | 58.6 7.2 | 5.1 0.2 | ESE | 107 | 9.9 2.8 | 0.00 | 0.00 | 66.4 2.2 | 52.6 6.2 |
| To Kalon Remote (TKKE) | 9/2/26 | 1130 | 69.0 1.0 | - | - | - | - | - | - | - | 70.3 1.6 | 53.7 4.3 |
| To Kalon | 9/2/26 | 1130 | 68.9 1.0 | 68 12 | 58.0 6.1 | 2.9 2.7 | SSW | 211 | 5.9 6.1 | 0.00 | 0.00 | 69.1 0.3 | 53.6 5.9 |
| To Kalon Remote (TKN5) | 9/2/26 | 1130 | 69.5 0.5 | - | - | - | - | - | - | - | 70.6 0.1 | 53.7 6.5 |
| Jump Rock | 9/2/26 | 1130 | 59.1 2.9 | 98 27 | 58.6 6.0 | 2.4 1.5 | WSW | 244 | 5.0 3.4 | 0.00 | 0.03 | 59.5 4.0 | 43.7 10.5 |
| State Lane Ranch | 9/2/26 | 1130 | 66.1 3.6 | 83 23 | 60.9 5.8 | 6.1 1.9 | ESE | 116 | 10.7 1.9 | 0.00 | 0.00 | 66.3 3.8 | 50.4 8.4 |
| Yountville (Ranch 67) | 9/2/26 | 1130 | 64.5 3.8 | 82 31 | 59.0 9.5 | 4.9 0.4 | ESE | 122 | 9.2 3.4 | 0.00 | 0.00 | 65.3 3.0 | 51.2 7.1 |
| Borreo (Soda Canyon) | 9/2/26 | 0815 | 60.0 1.6 | 81 1 | 54.1 1.9 | 1.6 0.2 | SE | 138 | 3.7 0.6 | 0.00 | 0.00 | 60.1 1.3 | 50.8 6.0 |
| Wappo Hill Floor | 9/2/26 | 1130 | 64.4 5.0 | 84 36 | 59.6 10.3 | 2.7 2.0 | SSE | 162 | 5.9 3.2 | 0.00 | 0.00 | 64.7 4.9 | 52.1 7.0 |
| Wappo Hill | 9/2/26 | 1130 | 64.3 4.5 | 84 34 | 59.3 9.8 | 4.7 1.5 | SE | 146 | 9.9 2.0 | 0.00 | 0.00 | 64.7 4.4 | 54.5 4.3 |
| Stags Leap Dist (Chimney Rock) | 9/2/26 | 1130 | 64.9 4.5 | 89 30 | 61.5 7.2 | 2.9 0.0 | SSE | 160 | 7.1 0.7 | 0.00 | 0.01 | 65.1 5.1 | 52.4 6.9 |
| Stags Leap Dist (Silverado Vineyards) | 9/2/26 | 1130 | 64.1 4.4 | 84 32 | 59.1 8.9 | 3.9 2.5 | SE | 125 | 6.9 0.5 | 0.00 | 0.00 | 64.4 4.7 | 52.1 6.3 |
| Yountville-SE (Ranch 85) | 9/2/26 | 1130 | 64.9 4.1 | 86 34 | 60.6 9.7 | 2.7 0.5 | S | 184 | 5.4 2.1 | 0.00 | 0.01 | 65.1 4.4 | 52.9 6.2 |
| Yountville-South (Ranch 87) | 9/2/26 | 1130 | 65.4 3.5 | 84 31 | 60.4 9.6 | 3.4 0.5 | S | 191 | 7.0 2.0 | 0.00 | 0.01 | 66.0 3.1 | 52.4 6.6 |
| Max | 69.5 | 98 | 63.5 | 6.1 | - | 10.7 | 0.01 | 0.09 | 70.6 | 57.9 | ||
| Avg | 65.6 | 83 | 59.8 | 3.3 | - | 7.2 | 0.00 | - | - | - | ||
| Min | 59.1 | 68 | 57.4 | 1.4 | - | 3.6 | 0.00 | 0.00 | 59.5 | 43.7 |
| Station | Date | Time | Temp (°F) | RH (%) | Dew Pt (°F) | Wind Spd (mph) | Wind Dir (°) | Wind Gust (mph) | Latest Rain (In) | Daily Rain (In) | Daily Max Temp (°F) | Daily Min Temp (°F) |
|---|---|---|---|---|---|---|---|---|---|---|---|---|
| Mt. Veeder | 9/2/26 | 1130 | 58.5 4.1 | 94 30 | 57.0 6.6 | 2.3 0.0 | ESE | 123 | 6.0 1.0 | 0.00 | 0.11 | 59.1 5.7 | 54.1 0.1 |
| Soda Canyon | 9/2/26 | 1130 | 63.8 4.1 | 89 24 | 60.5 5.0 | 5.3 3.9 | S | 171 | 8.8 1.8 | 0.01 | 0.01 | 64.0 4.4 | 52.9 5.4 |
| Big Ranch Rd | 9/2/26 | 1130 | 64.3 4.9 | - | - | - | - | - | - | - | 65.9 6.5 | 53.6 5.5 |
| Oak Knoll-East (Ranch 53) | 9/2/26 | 1130 | 65.6 4.4 | 81 32 | 59.6 9.6 | 4.0 0.1 | S | 187 | 8.8 0.8 | 0.00 | 0.01 | 66.0 4.3 | 53.1 5.8 |
| Napa-NW (Ranch 54) | 9/2/26 | 1130 | 67.7 5.0 | 79 33 | 60.9 10.1 | 1.2 1.8 | SSE | 161 | 5.2 5.7 | 0.00 | 0.02 | 68.4 4.7 | 53.8 4.8 |
| Frisinger Napa-NW | 9/2/26 | 1130 | 65.0 5.2 | 87 31 | 61.1 7.3 | 5.1 0.1 | S | 177 | 10.4 0.2 | 0.00 | 0.01 | 66.0 4.4 | 53.6 4.0 |
| Napa-North (Ranch 29) | 9/2/26 | 1130 | 63.6 6.1 | 100 45 | 63.6 10.8 | 3.6 0.1 | S | 181 | 8.5 0.4 | 0.00 | 0.01 | 64.0 6.2 | 52.5 5.7 |
| Mount George (Napa East) | 9/2/26 | 1130 | 62.4 5.4 | 93 39 | 60.4 9.6 | 1.7 2.7 | S | 188 | 4.5 4.6 | 0.01 | 0.03 | 64.0 3.8 | 52.7 5.1 |
| Napa-East (Palmaz 300') | 9/2/26 | 1130 | 62.9 7.4 | 91 39 | 60.3 8.3 | 0.0 1.6 | SSE | 159 | 0.9 8.5 | 0.01 | 0.03 | 64.9 6.1 | 55.2 2.3 |
| Napa-East (Palmaz 1200') | 7/4/26 | 0630 | 49.8 0.1 | 72 2 | 40.8 1.0 | 0.2 0.5 | E | 79 | 2.0 0.4 | - | - | 51.0 1.7 | 48.0 0.9 |
| Napa-East (Palmaz 1400') | 9/2/26 | 1130 | 58.1 5.6 | 100 34 | 58.1 6.0 | 4.4 0.6 | SSW | 200 | 11.3 1.6 | 0.02 | 0.08 | 59.6 5.6 | 53.5 0.4 |
| Wooden Valley | 9/2/26 | 1130 | 62.2 3.1 | 88 30 | 58.5 8.7 | 2.9 1.0 | WSW | 251 | 6.6 4.3 | 0.00 | 0.00 | 64.3 2.1 | 50.8 6.2 |
| Napa-West Upper (Truchard) | 9/2/26 | 1130 | 63.7 9.1 | 3 44 | -51.7 102.8 | 5.7 0.4 | S | 183 | 9.6 3.2 | 0.00 | 0.02 | 64.2 9.9 | 55.6 0.1 |
| Napa-West Lower (Truchard) | 9/2/26 | 1130 | 64.2 8.8 | 90 44 | 61.3 10.4 | - | - | - | - | - | 64.5 10.4 | 48.5 5.1 |
| Sunset Rd | 9/2/26 | 1130 | 64.4 6.3 | 89 40 | 61.0 10.6 | 3.7 0.7 | S | 189 | 10.2 1.8 | 0.00 | 0.01 | 64.9 6.1 | 51.2 4.4 |
| Napa-South (Toyon Farms) | 9/2/26 | 1130 | 63.7 6.9 | 98 42 | 63.2 8.9 | 5.9 0.2 | S | 190 | 10.6 0.8 | 0.01 | 0.02 | 64.2 7.6 | 55.1 1.6 |
| Dealy Lane (Ranch 80) | 9/2/26 | 1130 | 65.4 5.1 | 87 38 | 61.6 11.0 | 2.6 1.2 | S | 187 | 7.2 1.4 | 0.00 | 0.02 | 65.5 7.6 | 52.2 0.6 |
| Carneros (Saintsbury) | 9/2/26 | 1130 | 59.6 10.2 | 99 47 | 59.4 8.0 | 6.2 1.9 | SSW | 194 | 9.9 5.2 | 0.00 | 0.00 | 62.7 9.5 | 51.1 4.0 |
| Suscol Lower (Ranch 35) | 9/2/26 | 1130 | 63.6 8.6 | 91 41 | 60.8 8.6 | 8.0 0.4 | SSW | 201 | 13.5 0.2 | 0.00 | 0.01 | 66.0 7.3 | 54.0 2.6 |
| Suscol Mtn (Ranch 93) | 9/2/26 | 1130 | 59.9 5.6 | 98 36 | 59.3 7.2 | 6.4 5.3 | W | 277 | 12.9 5.6 | 0.02 | 0.08 | 61.9 8.6 | 56.0 1.6 |
| Suscol Upper (Ranch 92) | 9/2/26 | 1130 | 60.3 5.9 | 0 61 | -55.6 108.1 | 4.0 4.2 | SSW | 194 | 13.2 4.5 | 0.01 | 0.04 | 62.7 4.5 | 55.5 0.3 |
| Carneros (Mitsuko) | 9/2/26 | 1130 | 64.8 5.5 | - | - | - | - | - | - | - | 65.5 7.0 | 49.1 7.9 |
| Sugarloaf West | 9/2/26 | 1130 | 63.9 5.8 | 90 30 | 60.9 5.6 | 5.2 1.3 | S | 172 | 9.7 5.0 | 0.01 | 0.01 | 65.6 4.9 | 53.8 4.2 |
| Stanly (Ranch 45) | 9/2/26 | 1130 | 62.1 8.8 | 91 38 | 59.4 6.6 | 8.8 2.4 | WNW | 289 | 13.6 2.2 | 0.00 | 0.00 | 65.2 6.0 | 50.5 7.0 |
| Carneros (Las Amigas Rd) | 9/2/26 | 1130 | 65.1 3.5 | - | - | - | - | - | - | - | 65.4 4.6 | 52.0 5.4 |
| Carneros (Milton Rd) | 9/2/26 | 1130 | 64.5 5.7 | 89 36 | 61.2 9.0 | - | - | - | 0.00 | 0.00 | 65.9 4.9 | 51.0 6.7 |
| Carneros (Ranch 71) | 9/2/26 | 1130 | 64.3 3.4 | 87 31 | 60.4 8.7 | 2.6 4.8 | SSW | 196 | 6.4 6.5 | 0.00 | 0.01 | 64.6 4.3 | 56.9 0.2 |
| Carneros Upper (Ranch 81) | 9/2/26 | 1130 | 63.7 4.4 | 88 33 | 60.0 9.0 | 7.0 1.5 | SSW | 196 | 11.8 4.3 | - | - | 63.8 4.5 | 57.4 0.5 |
| Carneros Lower (Ranch 81) | 9/2/26 | 1130 | 63.9 9.7 | 100 51 | 63.9 10.6 | 3.0 2.4 | S | 176 | 8.3 3.5 | 0.00 | 0.00 | 64.0 10.0 | 52.0 5.1 |
| Toyon Remote 1 | 9/2/26 | 1130 | 64.4 7.8 | - | - | - | - | - | - | - | 64.9 11.1 | 50.3 3.5 |
| Toyon Remote 2 | 9/2/26 | 1130 | 64.3 6.6 | - | - | - | - | - | - | - | 64.8 8.2 | 50.7 1.8 |
| Toyon Remote 3 | 9/2/26 | 1130 | 65.4 8.8 | - | - | - | - | - | - | - | 66.0 9.2 | 50.2 2.3 |
| Max | 67.7 | 100 | 63.9 | 8.8 | - | 13.6 | 0.02 | 0.11 | 68.4 | 57.4 | ||
| Avg | 63.4 | 84 | 51.4 | 4.3 | - | 9.1 | 0.00 | - | - | - | ||
| Min | 58.1 | 0 | -55.6 | 0.0 | - | 0.9 | 0.00 | 0.00 | 59.1 | 48.5 |